sensor_id;sensor_type;location;lat;lon;timestamp;P1;durP1;ratioP1;P2;durP2;ratioP2
5967;SDS011;3010;51.028;4.170;2023-06-04T00:00:50;2.77;;;1.80;;
5967;SDS011;3010;51.028;4.170;2023-06-04T00:03:17;2.60;;;1.70;;
5967;SDS011;3010;51.028;4.170;2023-06-04T00:05:43;4.90;;;2.00;;
5967;SDS011;3010;51.028;4.170;2023-06-04T00:08:10;2.00;;;1.80;;
5967;SDS011;3010;51.028;4.170;2023-06-04T00:10:37;3.60;;;1.83;;
5967;SDS011;3010;51.028;4.170;2023-06-04T00:13:03;5.03;;;2.27;;
5967;SDS011;3010;51.028;4.170;2023-06-04T00:15:30;2.10;;;2.00;;
5967;SDS011;3010;51.028;4.170;2023-06-04T00:17:56;2.30;;;2.20;;
5967;SDS011;3010;51.028;4.170;2023-06-04T00:20:23;2.23;;;2.10;;
5967;SDS011;3010;51.028;4.170;2023-06-04T00:22:50;3.63;;;2.07;;
5967;SDS011;3010;51.028;4.170;2023-06-04T00:25:16;3.13;;;2.30;;
5967;SDS011;3010;51.028;4.170;2023-06-04T00:27:43;2.70;;;2.10;;
5967;SDS011;3010;51.028;4.170;2023-06-04T00:30:09;4.00;;;2.47;;
5967;SDS011;3010;51.028;4.170;2023-06-04T00:32:36;2.20;;;2.00;;
5967;SDS011;3010;51.028;4.170;2023-06-04T00:35:03;2.37;;;2.20;;
5967;SDS011;3010;51.028;4.170;2023-06-04T00:37:29;5.20;;;2.47;;
5967;SDS011;3010;51.028;4.170;2023-06-04T00:39:56;3.33;;;2.57;;
5967;SDS011;3010;51.028;4.170;2023-06-04T00:42:23;2.57;;;2.47;;
5967;SDS011;3010;51.028;4.170;2023-06-04T00:44:49;3.03;;;2.37;;
5967;SDS011;3010;51.028;4.170;2023-06-04T00:47:16;3.20;;;2.33;;
5967;SDS011;3010;51.028;4.170;2023-06-04T00:49:42;2.47;;;2.27;;
5967;SDS011;3010;51.028;4.170;2023-06-04T00:52:09;3.60;;;3.33;;
5967;SDS011;3010;51.028;4.170;2023-06-04T00:54:36;3.80;;;2.47;;
5967;SDS011;3010;51.028;4.170;2023-06-04T00:57:02;2.60;;;2.40;;
5967;SDS011;3010;51.028;4.170;2023-06-04T00:59:29;3.90;;;2.50;;
5967;SDS011;3010;51.028;4.170;2023-06-04T01:01:59;2.90;;;2.50;;
5967;SDS011;3010;51.028;4.170;2023-06-04T01:04:35;4.47;;;2.50;;
5967;SDS011;3010;51.028;4.170;2023-06-04T01:07:15;2.93;;;2.63;;
5967;SDS011;3010;51.028;4.170;2023-06-04T01:09:43;2.80;;;2.60;;
5967;SDS011;3010;51.028;4.170;2023-06-04T01:12:09;3.43;;;2.90;;
5967;SDS011;3010;51.028;4.170;2023-06-04T01:14:35;2.20;;;2.10;;
5967;SDS011;3010;51.028;4.170;2023-06-04T01:17:04;8.40;;;2.57;;
5967;SDS011;3010;51.028;4.170;2023-06-04T01:19:44;2.57;;;2.40;;
5967;SDS011;3010;51.028;4.170;2023-06-04T01:22:10;2.73;;;2.57;;
5967;SDS011;3010;51.028;4.170;2023-06-04T01:24:34;2.50;;;2.40;;
5967;SDS011;3010;51.028;4.170;2023-06-04T01:27:00;2.80;;;2.30;;
5967;SDS011;3010;51.028;4.170;2023-06-04T01:29:27;4.17;;;2.60;;
5967;SDS011;3010;51.028;4.170;2023-06-04T01:31:53;3.17;;;2.53;;
5967;SDS011;3010;51.028;4.170;2023-06-04T01:34:20;2.60;;;2.40;;
5967;SDS011;3010;51.028;4.170;2023-06-04T01:36:46;2.73;;;2.63;;
5967;SDS011;3010;51.028;4.170;2023-06-04T01:39:13;2.70;;;2.50;;
5967;SDS011;3010;51.028;4.170;2023-06-04T01:41:40;4.00;;;2.60;;
5967;SDS011;3010;51.028;4.170;2023-06-04T01:44:06;3.37;;;2.60;;
5967;SDS011;3010;51.028;4.170;2023-06-04T01:46:33;2.90;;;2.50;;
5967;SDS011;3010;51.028;4.170;2023-06-04T01:48:59;6.93;;;2.90;;
5967;SDS011;3010;51.028;4.170;2023-06-04T01:51:26;2.77;;;2.50;;
5967;SDS011;3010;51.028;4.170;2023-06-04T01:53:52;2.97;;;2.73;;
5967;SDS011;3010;51.028;4.170;2023-06-04T01:56:19;3.27;;;2.67;;
5967;SDS011;3010;51.028;4.170;2023-06-04T01:58:46;8.33;;;2.90;;
5967;SDS011;3010;51.028;4.170;2023-06-04T02:01:12;2.80;;;2.60;;
5967;SDS011;3010;51.028;4.170;2023-06-04T02:03:39;3.00;;;2.77;;
5967;SDS011;3010;51.028;4.170;2023-06-04T02:06:05;3.07;;;2.73;;
5967;SDS011;3010;51.028;4.170;2023-06-04T02:08:32;2.73;;;2.60;;
5967;SDS011;3010;51.028;4.170;2023-06-04T02:10:59;3.13;;;2.87;;
5967;SDS011;3010;51.028;4.170;2023-06-04T02:13:25;3.47;;;2.40;;
5967;SDS011;3010;51.028;4.170;2023-06-04T02:15:52;2.90;;;2.70;;
5967;SDS011;3010;51.028;4.170;2023-06-04T02:18:19;2.97;;;2.87;;
5967;SDS011;3010;51.028;4.170;2023-06-04T02:20:45;2.67;;;2.50;;
5967;SDS011;3010;51.028;4.170;2023-06-04T02:23:12;2.80;;;2.60;;
5967;SDS011;3010;51.028;4.170;2023-06-04T02:25:38;3.25;;;2.47;;
5967;SDS011;3010;51.028;4.170;2023-06-04T02:28:05;3.80;;;2.97;;
5967;SDS011;3010;51.028;4.170;2023-06-04T02:30:31;2.83;;;2.60;;
5967;SDS011;3010;51.028;4.170;2023-06-04T02:32:58;3.00;;;2.80;;
5967;SDS011;3010;51.028;4.170;2023-06-04T02:35:25;2.80;;;2.70;;
5967;SDS011;3010;51.028;4.170;2023-06-04T02:37:51;2.90;;;2.57;;
5967;SDS011;3010;51.028;4.170;2023-06-04T02:40:18;6.50;;;2.43;;
5967;SDS011;3010;51.028;4.170;2023-06-04T02:42:44;3.13;;;2.67;;
5967;SDS011;3010;51.028;4.170;2023-06-04T02:45:11;4.00;;;2.77;;
5967;SDS011;3010;51.028;4.170;2023-06-04T02:47:37;2.67;;;2.57;;
5967;SDS011;3010;51.028;4.170;2023-06-04T02:50:04;4.07;;;2.63;;
5967;SDS011;3010;51.028;4.170;2023-06-04T02:52:31;5.60;;;2.60;;
5967;SDS011;3010;51.028;4.170;2023-06-04T02:54:57;3.30;;;3.03;;
5967;SDS011;3010;51.028;4.170;2023-06-04T02:57:24;5.87;;;3.10;;
5967;SDS011;3010;51.028;4.170;2023-06-04T02:59:51;3.37;;;2.60;;
5967;SDS011;3010;51.028;4.170;2023-06-04T03:02:17;4.00;;;2.57;;
5967;SDS011;3010;51.028;4.170;2023-06-04T03:04:44;3.20;;;3.00;;
5967;SDS011;3010;51.028;4.170;2023-06-04T03:07:10;3.27;;;3.13;;
5967;SDS011;3010;51.028;4.170;2023-06-04T03:09:37;3.10;;;2.90;;
5967;SDS011;3010;51.028;4.170;2023-06-04T03:12:03;4.20;;;3.10;;
5967;SDS011;3010;51.028;4.170;2023-06-04T03:14:31;4.50;;;2.97;;
5967;SDS011;3010;51.028;4.170;2023-06-04T03:17:00;4.37;;;2.70;;
5967;SDS011;3010;51.028;4.170;2023-06-04T03:19:29;3.47;;;2.67;;
5967;SDS011;3010;51.028;4.170;2023-06-04T03:21:56;3.10;;;2.77;;
5967;SDS011;3010;51.028;4.170;2023-06-04T03:24:22;3.40;;;2.63;;
5967;SDS011;3010;51.028;4.170;2023-06-04T03:26:49;2.80;;;2.60;;
5967;SDS011;3010;51.028;4.170;2023-06-04T03:29:15;2.97;;;2.77;;
5967;SDS011;3010;51.028;4.170;2023-06-04T03:31:44;3.20;;;3.00;;
5967;SDS011;3010;51.028;4.170;2023-06-04T03:34:09;3.03;;;2.70;;
5967;SDS011;3010;51.028;4.170;2023-06-04T03:36:35;3.10;;;2.97;;
5967;SDS011;3010;51.028;4.170;2023-06-04T03:39:02;3.17;;;2.40;;
5967;SDS011;3010;51.028;4.170;2023-06-04T03:41:28;2.77;;;2.63;;
5967;SDS011;3010;51.028;4.170;2023-06-04T03:43:55;2.63;;;2.47;;
5967;SDS011;3010;51.028;4.170;2023-06-04T03:46:22;3.17;;;2.97;;
5967;SDS011;3010;51.028;4.170;2023-06-04T03:48:48;2.93;;;2.73;;
5967;SDS011;3010;51.028;4.170;2023-06-04T03:51:15;5.57;;;2.90;;
5967;SDS011;3010;51.028;4.170;2023-06-04T03:53:41;4.00;;;2.63;;
5967;SDS011;3010;51.028;4.170;2023-06-04T03:56:08;2.90;;;2.70;;
5967;SDS011;3010;51.028;4.170;2023-06-04T03:58:35;3.80;;;2.87;;
5967;SDS011;3010;51.028;4.170;2023-06-04T04:01:01;3.10;;;2.60;;
5967;SDS011;3010;51.028;4.170;2023-06-04T04:03:28;3.10;;;2.90;;
5967;SDS011;3010;51.028;4.170;2023-06-04T04:05:54;2.97;;;2.70;;
5967;SDS011;3010;51.028;4.170;2023-06-04T04:08:21;3.03;;;2.67;;
5967;SDS011;3010;51.028;4.170;2023-06-04T04:10:47;3.40;;;2.67;;
5967;SDS011;3010;51.028;4.170;2023-06-04T04:13:14;2.40;;;2.30;;
5967;SDS011;3010;51.028;4.170;2023-06-04T04:15:41;2.73;;;2.63;;
5967;SDS011;3010;51.028;4.170;2023-06-04T04:18:07;3.17;;;2.40;;
5967;SDS011;3010;51.028;4.170;2023-06-04T04:20:34;2.90;;;2.80;;
5967;SDS011;3010;51.028;4.170;2023-06-04T04:23:00;5.10;;;3.43;;
5967;SDS011;3010;51.028;4.170;2023-06-04T04:25:27;3.37;;;2.70;;
5967;SDS011;3010;51.028;4.170;2023-06-04T04:27:53;3.23;;;2.93;;
5967;SDS011;3010;51.028;4.170;2023-06-04T04:30:20;5.00;;;3.10;;
5967;SDS011;3010;51.028;4.170;2023-06-04T04:32:47;3.57;;;2.70;;
5967;SDS011;3010;51.028;4.170;2023-06-04T04:35:16;3.28;;;2.80;;
5967;SDS011;3010;51.028;4.170;2023-06-04T04:37:43;3.53;;;2.90;;
5967;SDS011;3010;51.028;4.170;2023-06-04T04:40:09;2.63;;;2.53;;
5967;SDS011;3010;51.028;4.170;2023-06-04T04:42:36;2.93;;;2.73;;
5967;SDS011;3010;51.028;4.170;2023-06-04T04:45:03;7.60;;;2.83;;
5967;SDS011;3010;51.028;4.170;2023-06-04T04:47:29;3.97;;;2.80;;
5967;SDS011;3010;51.028;4.170;2023-06-04T04:49:56;3.13;;;2.70;;
5967;SDS011;3010;51.028;4.170;2023-06-04T04:52:22;3.07;;;2.83;;
5967;SDS011;3010;51.028;4.170;2023-06-04T04:54:49;3.93;;;2.70;;
5967;SDS011;3010;51.028;4.170;2023-06-04T04:57:15;3.60;;;2.60;;
5967;SDS011;3010;51.028;4.170;2023-06-04T04:59:42;2.77;;;2.53;;
5967;SDS011;3010;51.028;4.170;2023-06-04T05:02:09;2.87;;;2.77;;
5967;SDS011;3010;51.028;4.170;2023-06-04T05:04:35;4.13;;;2.83;;
5967;SDS011;3010;51.028;4.170;2023-06-04T05:07:02;2.90;;;2.67;;
5967;SDS011;3010;51.028;4.170;2023-06-04T05:09:28;3.87;;;2.77;;
5967;SDS011;3010;51.028;4.170;2023-06-04T05:11:55;3.00;;;2.90;;
5967;SDS011;3010;51.028;4.170;2023-06-04T05:14:21;3.37;;;2.60;;
5967;SDS011;3010;51.028;4.170;2023-06-04T05:16:48;3.53;;;2.90;;
5967;SDS011;3010;51.028;4.170;2023-06-04T05:19:18;2.93;;;2.70;;
5967;SDS011;3010;51.028;4.170;2023-06-04T05:21:44;3.37;;;3.17;;
5967;SDS011;3010;51.028;4.170;2023-06-04T05:24:11;2.90;;;2.63;;
5967;SDS011;3010;51.028;4.170;2023-06-04T05:26:37;2.90;;;2.70;;
5967;SDS011;3010;51.028;4.170;2023-06-04T05:29:04;3.07;;;2.90;;
5967;SDS011;3010;51.028;4.170;2023-06-04T05:31:31;3.27;;;2.97;;
5967;SDS011;3010;51.028;4.170;2023-06-04T05:33:57;3.00;;;2.80;;
5967;SDS011;3010;51.028;4.170;2023-06-04T05:36:24;2.70;;;2.57;;
5967;SDS011;3010;51.028;4.170;2023-06-04T05:38:50;3.60;;;2.70;;
5967;SDS011;3010;51.028;4.170;2023-06-04T05:41:17;2.77;;;2.70;;
5967;SDS011;3010;51.028;4.170;2023-06-04T05:43:43;3.17;;;2.97;;
5967;SDS011;3010;51.028;4.170;2023-06-04T05:46:10;3.40;;;2.80;;
5967;SDS011;3010;51.028;4.170;2023-06-04T05:48:37;3.00;;;2.90;;
5967;SDS011;3010;51.028;4.170;2023-06-04T05:51:03;2.53;;;2.33;;
5967;SDS011;3010;51.028;4.170;2023-06-04T05:53:30;4.43;;;2.80;;
5967;SDS011;3010;51.028;4.170;2023-06-04T05:55:56;2.70;;;2.60;;
5967;SDS011;3010;51.028;4.170;2023-06-04T05:58:23;3.07;;;2.80;;
5967;SDS011;3010;51.028;4.170;2023-06-04T06:00:50;2.70;;;2.60;;
5967;SDS011;3010;51.028;4.170;2023-06-04T06:03:16;3.60;;;2.50;;
5967;SDS011;3010;51.028;4.170;2023-06-04T06:05:43;6.50;;;2.50;;
5967;SDS011;3010;51.028;4.170;2023-06-04T06:08:09;4.37;;;2.73;;
5967;SDS011;3010;51.028;4.170;2023-06-04T06:10:36;3.33;;;2.80;;
5967;SDS011;3010;51.028;4.170;2023-06-04T06:13:02;2.70;;;2.50;;
5967;SDS011;3010;51.028;4.170;2023-06-04T06:15:29;3.07;;;2.80;;
5967;SDS011;3010;51.028;4.170;2023-06-04T06:17:56;2.70;;;2.50;;
5967;SDS011;3010;51.028;4.170;2023-06-04T06:20:22;2.97;;;2.63;;
5967;SDS011;3010;51.028;4.170;2023-06-04T06:22:49;4.43;;;2.70;;
5967;SDS011;3010;51.028;4.170;2023-06-04T06:25:15;2.90;;;2.60;;
5967;SDS011;3010;51.028;4.170;2023-06-04T06:27:42;3.20;;;3.00;;
5967;SDS011;3010;51.028;4.170;2023-06-04T06:30:09;2.57;;;2.47;;
5967;SDS011;3010;51.028;4.170;2023-06-04T06:32:35;4.00;;;2.70;;
5967;SDS011;3010;51.028;4.170;2023-06-04T06:35:02;2.60;;;2.40;;
5967;SDS011;3010;51.028;4.170;2023-06-04T06:37:28;3.30;;;2.70;;
5967;SDS011;3010;51.028;4.170;2023-06-04T06:39:55;3.00;;;2.80;;
5967;SDS011;3010;51.028;4.170;2023-06-04T06:42:22;2.80;;;2.60;;
5967;SDS011;3010;51.028;4.170;2023-06-04T06:44:48;3.00;;;2.80;;
5967;SDS011;3010;51.028;4.170;2023-06-04T06:47:15;2.97;;;2.67;;
5967;SDS011;3010;51.028;4.170;2023-06-04T06:49:42;5.67;;;2.90;;
5967;SDS011;3010;51.028;4.170;2023-06-04T06:52:09;3.95;;;2.33;;
5967;SDS011;3010;51.028;4.170;2023-06-04T06:54:35;3.60;;;2.63;;
5967;SDS011;3010;51.028;4.170;2023-06-04T06:57:01;2.92;;;2.72;;
5967;SDS011;3010;51.028;4.170;2023-06-04T06:59:28;3.37;;;2.70;;
5967;SDS011;3010;51.028;4.170;2023-06-04T07:01:54;2.63;;;2.50;;
5967;SDS011;3010;51.028;4.170;2023-06-04T07:04:21;4.27;;;2.50;;
5967;SDS011;3010;51.028;4.170;2023-06-04T07:06:47;2.70;;;2.60;;
5967;SDS011;3010;51.028;4.170;2023-06-04T07:09:14;4.37;;;2.60;;
5967;SDS011;3010;51.028;4.170;2023-06-04T07:11:41;2.60;;;2.50;;
5967;SDS011;3010;51.028;4.170;2023-06-04T07:14:07;2.60;;;2.50;;
5967;SDS011;3010;51.028;4.170;2023-06-04T07:16:34;2.55;;;2.20;;
5967;SDS011;3010;51.028;4.170;2023-06-04T07:19:01;2.47;;;2.37;;
5967;SDS011;3010;51.028;4.170;2023-06-04T07:21:27;2.57;;;2.37;;
5967;SDS011;3010;51.028;4.170;2023-06-04T07:23:54;3.13;;;2.93;;
5967;SDS011;3010;51.028;4.170;2023-06-04T07:26:20;3.03;;;2.83;;
5967;SDS011;3010;51.028;4.170;2023-06-04T07:28:47;2.70;;;2.50;;
5967;SDS011;3010;51.028;4.170;2023-06-04T07:31:17;3.80;;;2.40;;
5967;SDS011;3010;51.028;4.170;2023-06-04T07:33:43;2.47;;;2.23;;
5967;SDS011;3010;51.028;4.170;2023-06-04T07:36:13;2.20;;;2.10;;
5967;SDS011;3010;51.028;4.170;2023-06-04T07:38:36;1.83;;;1.73;;
5967;SDS011;3010;51.028;4.170;2023-06-04T07:41:03;2.30;;;2.20;;
5967;SDS011;3010;51.028;4.170;2023-06-04T07:43:30;2.40;;;2.20;;
5967;SDS011;3010;51.028;4.170;2023-06-04T07:45:56;2.20;;;1.97;;
5967;SDS011;3010;51.028;4.170;2023-06-04T07:48:23;3.30;;;1.93;;
5967;SDS011;3010;51.028;4.170;2023-06-04T07:50:49;1.80;;;1.80;;
5967;SDS011;3010;51.028;4.170;2023-06-04T07:53:16;3.90;;;1.70;;
5967;SDS011;3010;51.028;4.170;2023-06-04T07:55:43;2.20;;;2.10;;
5967;SDS011;3010;51.028;4.170;2023-06-04T07:58:09;1.80;;;1.70;;
5967;SDS011;3010;51.028;4.170;2023-06-04T08:00:36;1.73;;;1.73;;
5967;SDS011;3010;51.028;4.170;2023-06-04T08:03:02;2.03;;;1.93;;
5967;SDS011;3010;51.028;4.170;2023-06-04T08:05:29;1.73;;;1.70;;
5967;SDS011;3010;51.028;4.170;2023-06-04T08:07:55;2.07;;;1.93;;
5967;SDS011;3010;51.028;4.170;2023-06-04T08:10:22;3.60;;;1.97;;
5967;SDS011;3010;51.028;4.170;2023-06-04T08:12:49;1.90;;;1.80;;
5967;SDS011;3010;51.028;4.170;2023-06-04T08:15:15;2.30;;;2.03;;
5967;SDS011;3010;51.028;4.170;2023-06-04T08:17:42;2.37;;;1.80;;
5967;SDS011;3010;51.028;4.170;2023-06-04T08:20:08;1.67;;;1.60;;
5967;SDS011;3010;51.028;4.170;2023-06-04T08:22:35;1.70;;;1.60;;
5967;SDS011;3010;51.028;4.170;2023-06-04T08:25:01;1.70;;;1.60;;
5967;SDS011;3010;51.028;4.170;2023-06-04T08:27:28;3.33;;;1.83;;
5967;SDS011;3010;51.028;4.170;2023-06-04T08:29:55;1.70;;;1.43;;
5967;SDS011;3010;51.028;4.170;2023-06-04T08:32:21;3.23;;;1.60;;
5967;SDS011;3010;51.028;4.170;2023-06-04T08:34:48;2.63;;;1.70;;
5967;SDS011;3010;51.028;4.170;2023-06-04T08:37:14;1.80;;;1.70;;
5967;SDS011;3010;51.028;4.170;2023-06-04T08:39:41;2.43;;;1.70;;
5967;SDS011;3010;51.028;4.170;2023-06-04T08:42:08;1.90;;;1.80;;
5967;SDS011;3010;51.028;4.170;2023-06-04T08:44:34;1.70;;;1.60;;
5967;SDS011;3010;51.028;4.170;2023-06-04T08:47:05;1.57;;;1.57;;
5967;SDS011;3010;51.028;4.170;2023-06-04T08:49:34;1.57;;;1.47;;
5967;SDS011;3010;51.028;4.170;2023-06-04T08:52:00;1.45;;;1.35;;
5967;SDS011;3010;51.028;4.170;2023-06-04T08:54:26;2.67;;;1.40;;
5967;SDS011;3010;51.028;4.170;2023-06-04T08:56:55;2.37;;;1.50;;
5967;SDS011;3010;51.028;4.170;2023-06-04T08:59:20;2.40;;;1.63;;
5967;SDS011;3010;51.028;4.170;2023-06-04T09:01:46;1.50;;;1.40;;
5967;SDS011;3010;51.028;4.170;2023-06-04T09:04:13;1.63;;;1.47;;
5967;SDS011;3010;51.028;4.170;2023-06-04T09:06:39;2.30;;;1.33;;
5967;SDS011;3010;51.028;4.170;2023-06-04T09:09:08;4.70;;;1.83;;
5967;SDS011;3010;51.028;4.170;2023-06-04T09:11:36;1.57;;;1.57;;
5967;SDS011;3010;51.028;4.170;2023-06-04T09:14:03;1.70;;;1.47;;
5967;SDS011;3010;51.028;4.170;2023-06-04T09:16:28;1.70;;;1.60;;
5967;SDS011;3010;51.028;4.170;2023-06-04T09:18:55;1.40;;;1.30;;
5967;SDS011;3010;51.028;4.170;2023-06-04T09:21:21;2.07;;;1.53;;
5967;SDS011;3010;51.028;4.170;2023-06-04T09:23:48;3.60;;;1.70;;
5967;SDS011;3010;51.028;4.170;2023-06-04T09:26:15;1.77;;;1.40;;
5967;SDS011;3010;51.028;4.170;2023-06-04T09:28:42;1.67;;;1.57;;
5967;SDS011;3010;51.028;4.170;2023-06-04T09:31:08;1.40;;;1.30;;
5967;SDS011;3010;51.028;4.170;2023-06-04T09:33:43;1.70;;;1.60;;
5967;SDS011;3010;51.028;4.170;2023-06-04T09:36:09;1.47;;;1.20;;
5967;SDS011;3010;51.028;4.170;2023-06-04T09:38:36;5.40;;;1.50;;
5967;SDS011;3010;51.028;4.170;2023-06-04T09:41:02;2.12;;;1.20;;
5967;SDS011;3010;51.028;4.170;2023-06-04T09:43:32;2.43;;;1.40;;
5967;SDS011;3010;51.028;4.170;2023-06-04T09:46:08;2.43;;;1.40;;
5967;SDS011;3010;51.028;4.170;2023-06-04T09:48:34;1.20;;;1.20;;
5967;SDS011;3010;51.028;4.170;2023-06-04T09:51:10;1.50;;;1.40;;
5967;SDS011;3010;51.028;4.170;2023-06-04T09:53:37;1.90;;;1.80;;
5967;SDS011;3010;51.028;4.170;2023-06-04T09:56:03;1.70;;;1.33;;
5967;SDS011;3010;51.028;4.170;2023-06-04T09:58:29;1.27;;;1.20;;
5967;SDS011;3010;51.028;4.170;2023-06-04T10:00:57;1.50;;;1.40;;
5967;SDS011;3010;51.028;4.170;2023-06-04T10:03:25;2.83;;;1.50;;
5967;SDS011;3010;51.028;4.170;2023-06-04T10:05:53;1.98;;;1.23;;
5967;SDS011;3010;51.028;4.170;2023-06-04T10:08:19;1.27;;;1.20;;
5967;SDS011;3010;51.028;4.170;2023-06-04T10:10:45;3.70;;;1.40;;
5967;SDS011;3010;51.028;4.170;2023-06-04T10:13:21;1.97;;;1.43;;
5967;SDS011;3010;51.028;4.170;2023-06-04T10:15:38;1.50;;;1.50;;
5967;SDS011;3010;51.028;4.170;2023-06-04T10:18:05;1.57;;;1.50;;
5967;SDS011;3010;51.028;4.170;2023-06-04T10:20:32;2.43;;;2.07;;
5967;SDS011;3010;51.028;4.170;2023-06-04T10:22:58;2.63;;;1.90;;
5967;SDS011;3010;51.028;4.170;2023-06-04T10:25:25;2.90;;;1.25;;
5967;SDS011;3010;51.028;4.170;2023-06-04T10:27:51;1.33;;;1.23;;
5967;SDS011;3010;51.028;4.170;2023-06-04T10:30:18;1.53;;;1.43;;
5967;SDS011;3010;51.028;4.170;2023-06-04T10:32:44;1.37;;;1.30;;
5967;SDS011;3010;51.028;4.170;2023-06-04T10:35:11;5.90;;;1.60;;
5967;SDS011;3010;51.028;4.170;2023-06-04T10:37:38;2.20;;;1.10;;
5967;SDS011;3010;51.028;4.170;2023-06-04T10:40:04;1.40;;;1.30;;
5967;SDS011;3010;51.028;4.170;2023-06-04T10:42:41;2.33;;;1.47;;
5967;SDS011;3010;51.028;4.170;2023-06-04T10:45:04;1.43;;;1.40;;
5967;SDS011;3010;51.028;4.170;2023-06-04T10:47:31;1.53;;;1.43;;
5967;SDS011;3010;51.028;4.170;2023-06-04T10:50:06;1.50;;;1.30;;
5967;SDS011;3010;51.028;4.170;2023-06-04T10:52:24;1.40;;;1.30;;
5967;SDS011;3010;51.028;4.170;2023-06-04T10:54:50;1.40;;;1.30;;
5967;SDS011;3010;51.028;4.170;2023-06-04T10:57:17;3.23;;;1.30;;
5967;SDS011;3010;51.028;4.170;2023-06-04T10:59:56;3.23;;;1.30;;
5967;SDS011;3010;51.028;4.170;2023-06-04T11:02:22;1.50;;;1.40;;
5967;SDS011;3010;51.028;4.170;2023-06-04T11:04:58;1.03;;;1.03;;
5967;SDS011;3010;51.028;4.170;2023-06-04T11:07:27;1.00;;;1.00;;
5967;SDS011;3010;51.028;4.170;2023-06-04T11:09:54;2.10;;;1.50;;
5967;SDS011;3010;51.028;4.170;2023-06-04T11:12:20;2.00;;;1.40;;
5967;SDS011;3010;51.028;4.170;2023-06-04T11:14:56;1.20;;;1.10;;
5967;SDS011;3010;51.028;4.170;2023-06-04T11:17:23;2.00;;;1.50;;
5967;SDS011;3010;51.028;4.170;2023-06-04T11:19:49;1.73;;;1.50;;
5967;SDS011;3010;51.028;4.170;2023-06-04T11:22:16;1.50;;;1.40;;
5967;SDS011;3010;51.028;4.170;2023-06-04T11:24:42;1.27;;;1.27;;
5967;SDS011;3010;51.028;4.170;2023-06-04T11:27:09;1.10;;;1.10;;
5967;SDS011;3010;51.028;4.170;2023-06-04T11:29:36;1.20;;;1.20;;
5967;SDS011;3010;51.028;4.170;2023-06-04T11:32:02;1.40;;;1.40;;
5967;SDS011;3010;51.028;4.170;2023-06-04T11:34:29;1.40;;;1.40;;
5967;SDS011;3010;51.028;4.170;2023-06-04T11:36:55;1.20;;;1.20;;
5967;SDS011;3010;51.028;4.170;2023-06-04T11:39:22;1.40;;;1.30;;
5967;SDS011;3010;51.028;4.170;2023-06-04T11:41:50;1.30;;;1.30;;
5967;SDS011;3010;51.028;4.170;2023-06-04T11:44:17;1.73;;;1.10;;
5967;SDS011;3010;51.028;4.170;2023-06-04T11:46:42;1.90;;;1.10;;
5967;SDS011;3010;51.028;4.170;2023-06-04T11:49:11;2.40;;;1.20;;
5967;SDS011;3010;51.028;4.170;2023-06-04T11:51:35;1.27;;;1.20;;
5967;SDS011;3010;51.028;4.170;2023-06-04T11:54:01;1.20;;;1.20;;
5967;SDS011;3010;51.028;4.170;2023-06-04T11:56:28;1.13;;;1.13;;
5967;SDS011;3010;51.028;4.170;2023-06-04T11:58:54;1.60;;;1.20;;
5967;SDS011;3010;51.028;4.170;2023-06-04T12:01:21;1.40;;;1.40;;
5967;SDS011;3010;51.028;4.170;2023-06-04T12:03:48;1.13;;;1.13;;
5967;SDS011;3010;51.028;4.170;2023-06-04T12:06:15;1.30;;;1.20;;
5967;SDS011;3010;51.028;4.170;2023-06-04T12:08:46;1.40;;;1.30;;
5967;SDS011;3010;51.028;4.170;2023-06-04T12:11:48;1.40;;;1.40;;
5967;SDS011;3010;51.028;4.170;2023-06-04T12:13:56;1.53;;;1.43;;
5967;SDS011;3010;51.028;4.170;2023-06-04T12:16:22;3.73;;;1.30;;
5967;SDS011;3010;51.028;4.170;2023-06-04T12:18:49;2.60;;;1.30;;
5967;SDS011;3010;51.028;4.170;2023-06-04T12:21:16;1.25;;;1.17;;
5967;SDS011;3010;51.028;4.170;2023-06-04T12:23:47;1.40;;;1.33;;
5967;SDS011;3010;51.028;4.170;2023-06-04T12:26:21;1.17;;;1.17;;
5967;SDS011;3010;51.028;4.170;2023-06-04T12:28:59;1.50;;;1.27;;
5967;SDS011;3010;51.028;4.170;2023-06-04T12:31:25;1.10;;;1.10;;
5967;SDS011;3010;51.028;4.170;2023-06-04T12:33:52;1.90;;;1.57;;
5967;SDS011;3010;51.028;4.170;2023-06-04T12:36:18;2.05;;;1.20;;
5967;SDS011;3010;51.028;4.170;2023-06-04T12:38:45;2.10;;;1.30;;
5967;SDS011;3010;51.028;4.170;2023-06-04T12:41:12;1.50;;;1.40;;
5967;SDS011;3010;51.028;4.170;2023-06-04T12:43:38;1.47;;;1.37;;
5967;SDS011;3010;51.028;4.170;2023-06-04T12:46:05;1.62;;;1.30;;
5967;SDS011;3010;51.028;4.170;2023-06-04T12:48:31;1.30;;;1.30;;
5967;SDS011;3010;51.028;4.170;2023-06-04T12:50:58;1.60;;;1.50;;
5967;SDS011;3010;51.028;4.170;2023-06-04T12:53:25;1.67;;;1.20;;
5967;SDS011;3010;51.028;4.170;2023-06-04T12:55:51;5.03;;;1.37;;
5967;SDS011;3010;51.028;4.170;2023-06-04T12:58:18;1.20;;;1.20;;
5967;SDS011;3010;51.028;4.170;2023-06-04T13:00:44;1.40;;;1.30;;
5967;SDS011;3010;51.028;4.170;2023-06-04T13:03:11;1.90;;;1.30;;
5967;SDS011;3010;51.028;4.170;2023-06-04T13:05:37;1.50;;;1.40;;
5967;SDS011;3010;51.028;4.170;2023-06-04T13:08:04;1.60;;;1.50;;
5967;SDS011;3010;51.028;4.170;2023-06-04T13:10:31;1.20;;;1.20;;
5967;SDS011;3010;51.028;4.170;2023-06-04T13:12:57;1.90;;;1.60;;
5967;SDS011;3010;51.028;4.170;2023-06-04T13:15:24;3.07;;;1.40;;
5967;SDS011;3010;51.028;4.170;2023-06-04T13:17:50;1.40;;;1.40;;
5967;SDS011;3010;51.028;4.170;2023-06-04T13:20:17;1.70;;;1.33;;
5967;SDS011;3010;51.028;4.170;2023-06-04T13:22:44;2.13;;;1.40;;
5967;SDS011;3010;51.028;4.170;2023-06-04T13:25:10;1.90;;;1.47;;
5967;SDS011;3010;51.028;4.170;2023-06-04T13:27:37;1.80;;;1.33;;
5967;SDS011;3010;51.028;4.170;2023-06-04T13:30:04;1.63;;;1.53;;
5967;SDS011;3010;51.028;4.170;2023-06-04T13:32:30;1.53;;;1.53;;
5967;SDS011;3010;51.028;4.170;2023-06-04T13:34:57;1.63;;;1.30;;
5967;SDS011;3010;51.028;4.170;2023-06-04T13:37:23;4.53;;;1.57;;
5967;SDS011;3010;51.028;4.170;2023-06-04T13:39:50;1.93;;;1.50;;
5967;SDS011;3010;51.028;4.170;2023-06-04T13:42:16;1.50;;;1.23;;
5967;SDS011;3010;51.028;4.170;2023-06-04T13:44:43;1.53;;;1.53;;
5967;SDS011;3010;51.028;4.170;2023-06-04T13:47:10;2.77;;;1.60;;
5967;SDS011;3010;51.028;4.170;2023-06-04T13:49:36;1.83;;;1.60;;
5967;SDS011;3010;51.028;4.170;2023-06-04T13:52:03;1.33;;;1.10;;
5967;SDS011;3010;51.028;4.170;2023-06-04T13:54:29;1.50;;;1.50;;
5967;SDS011;3010;51.028;4.170;2023-06-04T13:56:56;1.83;;;1.40;;
5967;SDS011;3010;51.028;4.170;2023-06-04T13:59:22;2.43;;;1.50;;
5967;SDS011;3010;51.028;4.170;2023-06-04T14:01:49;1.80;;;1.57;;
5967;SDS011;3010;51.028;4.170;2023-06-04T14:04:16;2.50;;;1.53;;
5967;SDS011;3010;51.028;4.170;2023-06-04T14:06:42;1.60;;;1.50;;
5967;SDS011;3010;51.028;4.170;2023-06-04T14:09:09;2.23;;;1.43;;
5967;SDS011;3010;51.028;4.170;2023-06-04T14:11:37;1.37;;;1.37;;
5967;SDS011;3010;51.028;4.170;2023-06-04T14:14:02;1.50;;;1.40;;
5967;SDS011;3010;51.028;4.170;2023-06-04T14:16:29;1.53;;;1.40;;
5967;SDS011;3010;51.028;4.170;2023-06-04T14:18:55;1.43;;;1.33;;
5967;SDS011;3010;51.028;4.170;2023-06-04T14:21:22;1.70;;;1.60;;
5967;SDS011;3010;51.028;4.170;2023-06-04T14:23:48;1.37;;;1.37;;
5967;SDS011;3010;51.028;4.170;2023-06-04T14:26:15;2.53;;;1.30;;
5967;SDS011;3010;51.028;4.170;2023-06-04T14:28:41;4.93;;;1.97;;
5967;SDS011;3010;51.028;4.170;2023-06-04T14:31:08;1.43;;;1.30;;
5967;SDS011;3010;51.028;4.170;2023-06-04T14:33:35;2.97;;;1.40;;
5967;SDS011;3010;51.028;4.170;2023-06-04T14:36:01;1.70;;;1.40;;
5967;SDS011;3010;51.028;4.170;2023-06-04T14:38:28;1.60;;;1.50;;
5967;SDS011;3010;51.028;4.170;2023-06-04T14:40:54;2.10;;;1.70;;
5967;SDS011;3010;51.028;4.170;2023-06-04T14:43:21;2.00;;;1.50;;
5967;SDS011;3010;51.028;4.170;2023-06-04T14:45:48;3.60;;;1.80;;
5967;SDS011;3010;51.028;4.170;2023-06-04T14:48:14;2.43;;;1.70;;
5967;SDS011;3010;51.028;4.170;2023-06-04T14:50:41;1.97;;;1.47;;
5967;SDS011;3010;51.028;4.170;2023-06-04T14:53:07;1.90;;;1.80;;
5967;SDS011;3010;51.028;4.170;2023-06-04T14:55:34;1.98;;;1.73;;
5967;SDS011;3010;51.028;4.170;2023-06-04T14:58:00;1.57;;;1.47;;
5967;SDS011;3010;51.028;4.170;2023-06-04T15:00:27;1.80;;;1.70;;
5967;SDS011;3010;51.028;4.170;2023-06-04T15:02:54;1.63;;;1.53;;
5967;SDS011;3010;51.028;4.170;2023-06-04T15:05:20;1.63;;;1.60;;
5967;SDS011;3010;51.028;4.170;2023-06-04T15:07:47;1.80;;;1.70;;
5967;SDS011;3010;51.028;4.170;2023-06-04T15:10:13;2.70;;;1.40;;
5967;SDS011;3010;51.028;4.170;2023-06-04T15:12:40;1.57;;;1.47;;